CheckWX is a tool to help pilots better visualize weather data.  It is not intended as a substitute for an official pre-flight weather briefing.

02:11:23 UTC

CYKF METAR
Waterloo Airport
Kitchener, Canada
Current

11 mins ago

CYKF 230200Z AUTO 11006KT 9SM BKN150 10/06 A3010 RMK SLP199
Observed
Apr-23 @ 02:00 UTC
Wind
  • 110° at 6 KTS
Visibility
9 SM
Flight Rules
VFR
Cloud Levels
  • Broken at 15,000' AGL
Temperature
10°C / 50°F
Dewpoint
C / 43°F
Humidity
76%
Altimeter
30.1" Hg
Pressure
1019.32 hPa
Previous

1 hour ago

CYKF 230100Z AUTO 12008KT 9SM CLR 12/08 A3010 RMK SLP199
Observed
Apr-23 @ 01:00 UTC
Wind
  • 120° at 8 KTS
Visibility
9 SM
Flight Rules
VFR
Cloud Levels
  • Clear skies
Temperature
12°C / 54°F
Dewpoint
C / 46°F
Humidity
77%
Altimeter
30.1" Hg
Pressure
1019.32 hPa
Previous

2 hours ago

CYKF 230000Z AUTO 15007KT 9SM CLR 14/07 A3010 RMK SLP200
Observed
Apr-23 @ 00:00 UTC
Wind
  • 150° at 7 KTS
Visibility
9 SM
Flight Rules
VFR
Cloud Levels
  • Clear skies
Temperature
14°C / 57°F
Dewpoint
C / 45°F
Humidity
63%
Altimeter
30.1" Hg
Pressure
1019.32 hPa